Time;durP1;ratioP1;P1;durP2;ratioP2;P2;SDS_P1;SDS_P2;PMS_P1;PMS_P2;Temp;Humidity;BMP_temperature;BMP_pressure;BME280_temperature;BME280_humidity;BME280_pressure;Samples;Min_cycle;Max_cycle;Signal;HPM_P1;HPM_P2
2023/01/13 00:02:17;;;;;;;0.28;0.20;;;;;;;;;;10259014;28;20076;-80
2023/01/13 00:07:20;;;;;;;0.30;0.30;;;;;;;;;;10275452;28;20093;-80
2023/01/13 00:12:25;;;;;;;0.10;0.10;;;;;;;;;;10258094;28;20046;-81
2023/01/13 00:17:29;;;;;;;0.22;0.17;;;;;;;;;;10337832;28;20042;-82
2023/01/13 00:22:33;;;;;;;0.50;0.20;;;;;;;;;;10331425;28;20072;-81
2023/01/13 00:27:39;;;;;;;0.45;0.30;;;;;;;;;;10324731;28;20054;-82
2023/01/13 00:32:42;;;;;;;0.25;0.20;;;;;;;;;;10318204;28;20624;-80
2023/01/13 00:37:45;;;;;;;0.25;0.20;;;;;;;;;;10303602;28;20046;-80
2023/01/13 00:48:11;;;;;;;0.20;0.20;;;;;;;;;;10326462;28;20062;-81
2023/01/13 00:53:15;;;;;;;0.57;0.10;;;;;;;;;;10314304;28;20093;-80
2023/01/13 00:58:20;;;;;;;0.52;0.10;;;;;;;;;;10304354;28;20042;-80
2023/01/13 01:03:24;;;;;;;0.20;0.20;;;;;;;;;;10305174;28;20047;-82
2023/01/13 01:08:27;;;;;;;0.90;0.10;;;;;;;;;;10301675;28;20053;-81
2023/01/13 01:13:33;;;;;;;1.15;0.35;;;;;;;;;;10289237;28;20042;-80
2023/01/13 01:18:39;;;;;;;0.43;0.20;;;;;;;;;;10320396;28;20043;-80
2023/01/13 01:23:42;;;;;;;0.28;0.20;;;;;;;;;;10307567;28;20133;-80
2023/01/13 01:28:48;;;;;;;0.10;0.10;;;;;;;;;;10314458;28;20124;-80
2023/01/13 01:33:52;;;;;;;0.50;0.20;;;;;;;;;;10307612;28;20050;-80
2023/01/13 01:38:57;;;;;;;0.30;0.20;;;;;;;;;;10308979;28;20049;-80
2023/01/13 01:44:06;;;;;;;0.50;0.22;;;;;;;;;;10301023;28;20074;-81
2023/01/13 01:49:14;;;;;;;0.15;0.10;;;;;;;;;;10316540;28;20457;-80
2023/01/13 01:54:22;;;;;;;0.10;0.10;;;;;;;;;;10317891;28;20049;-80
2023/01/13 01:59:32;;;;;;;0.10;0.10;;;;;;;;;;10323521;28;20049;-82
2023/01/13 02:04:49;;;;;;;0.10;0.10;;;;;;;;;;10310482;28;20054;-81
2023/01/13 02:09:54;;;;;;;0.10;0.10;;;;;;;;;;10287485;28;20670;-83
2023/01/13 02:15:02;;;;;;;0.13;0.13;;;;;;;;;;10309084;28;20640;-83
2023/01/13 02:20:35;;;;;;;0.32;0.20;;;;;;;;;;10294704;28;20168;-82
2023/01/13 02:26:03;;;;;;;0.10;0.10;;;;;;;;;;10286622;28;20049;-83
2023/01/13 02:36:36;;;;;;;;;;;;;;;;;;10288301;28;20050;-82
2023/01/13 02:47:14;;;;;;;0.10;0.10;;;;;;;;;;10293264;28;20042;-82
2023/01/13 02:52:25;;;;;;;0.10;0.10;;;;;;;;;;10300208;28;20418;-82
2023/01/13 02:57:32;;;;;;;0.40;0.10;;;;;;;;;;10291361;28;20085;-82
2023/01/13 03:02:37;;;;;;;2.30;0.10;;;;;;;;;;10284032;28;20550;-81
2023/01/13 03:08:09;;;;;;;0.10;0.10;;;;;;;;;;10284232;28;20455;-81
2023/01/13 03:13:21;;;;;;;0.55;0.20;;;;;;;;;;10299427;28;20046;-82
2023/01/13 03:18:39;;;;;;;0.15;0.10;;;;;;;;;;10282868;28;20427;-81
2023/01/13 03:23:50;;;;;;;0.22;0.20;;;;;;;;;;10321211;28;20050;-84
2023/01/13 03:29:00;;;;;;;0.20;0.20;;;;;;;;;;10322090;28;20042;-82
2023/01/13 03:34:13;;;;;;;0.20;0.10;;;;;;;;;;10321283;28;20050;-82
2023/01/13 03:39:20;;;;;;;0.10;0.10;;;;;;;;;;10322666;28;20057;-82
2023/01/13 03:44:31;;;;;;;0.20;0.20;;;;;;;;;;10341013;28;20212;-83
2023/01/13 03:49:40;;;;;;;0.10;0.10;;;;;;;;;;10321267;28;20129;-82
2023/01/13 03:54:48;;;;;;;0.10;0.10;;;;;;;;;;10318362;28;20077;-83
2023/01/13 03:59:55;;;;;;;1.00;0.10;;;;;;;;;;10321058;28;20484;-82
2023/01/13 04:05:03;;;;;;;0.10;0.10;;;;;;;;;;10322290;28;20073;-83
2023/01/13 04:10:09;;;;;;;0.73;0.20;;;;;;;;;;10316093;28;20045;-84
2023/01/13 04:15:12;;;;;;;;;;;;;;;;;;10304691;28;20634;-84
2023/01/13 04:20:18;;;;;;;1.33;0.30;;;;;;;;;;10305325;28;19930;-81
2023/01/13 04:25:21;;;;;;;2.38;0.40;;;;;;;;;;10304434;28;20050;-80
2023/01/13 04:30:24;;;;;;;2.50;1.65;;;;;;;;;;10301735;28;20034;-80
2023/01/13 04:35:29;;;;;;;0.68;0.30;;;;;;;;;;10302329;28;20794;-80
2023/01/13 04:40:33;;;;;;;0.88;0.20;;;;;;;;;;10304713;28;20110;-79
2023/01/13 04:45:36;;;;;;;0.30;0.30;;;;;;;;;;10319034;28;20046;-80
2023/01/13 04:50:41;;;;;;;1.77;0.40;;;;;;;;;;10306778;28;20058;-81
2023/01/13 04:55:46;;;;;;;0.63;0.30;;;;;;;;;;10305938;28;20050;-80
2023/01/13 05:00:50;;;;;;;0.63;0.30;;;;;;;;;;10306839;28;20038;-81
2023/01/13 05:05:55;;;;;;;0.60;0.20;;;;;;;;;;10312606;28;20047;-82
2023/01/13 05:11:00;;;;;;;0.85;0.40;;;;;;;;;;10313130;28;20421;-85
2023/01/13 05:26:46;;;;;;;1.10;0.47;;;;;;;;;;10295205;28;20541;-84
2023/01/13 05:31:50;;;;;;;0.57;0.25;;;;;;;;;;10299387;28;20039;-82
2023/01/13 05:36:54;;;;;;;0.40;0.40;;;;;;;;;;10303285;28;20042;-84
2023/01/13 05:47:18;;;;;;;0.52;0.30;;;;;;;;;;10301975;28;20042;-83
2023/01/13 05:52:23;;;;;;;0.32;0.30;;;;;;;;;;10316612;28;20053;-84
2023/01/13 05:57:27;;;;;;;0.20;0.20;;;;;;;;;;10308512;28;20123;-84
2023/01/13 06:02:30;;;;;;;0.40;0.40;;;;;;;;;;10303081;28;20046;-83
2023/01/13 06:07:35;;;;;;;0.10;0.10;;;;;;;;;;10303782;28;20084;-84
2023/01/13 06:12:38;;;;;;;0.75;0.30;;;;;;;;;;10302381;28;20046;-83
2023/01/13 06:17:41;;;;;;;0.20;0.20;;;;;;;;;;10304656;28;20072;-82
2023/01/13 06:22:48;;;;;;;1.25;0.50;;;;;;;;;;10317486;28;20038;-81
2023/01/13 06:27:53;;;;;;;0.70;0.30;;;;;;;;;;10305497;28;20061;-82
2023/01/13 06:32:59;;;;;;;0.35;0.20;;;;;;;;;;10302233;28;20065;-81
2023/01/13 06:38:08;;;;;;;0.60;0.20;;;;;;;;;;10296535;28;20525;-83
2023/01/13 06:43:14;;;;;;;0.40;0.30;;;;;;;;;;10284265;28;20034;-83
2023/01/13 06:48:21;;;;;;;0.45;0.30;;;;;;;;;;10289353;28;20513;-84
2023/01/13 06:53:26;;;;;;;0.52;0.45;;;;;;;;;;10279951;28;20042;-83
2023/01/13 06:58:29;;;;;;;1.45;0.40;;;;;;;;;;10272476;28;20050;-84
2023/01/13 07:03:33;;;;;;;0.43;0.32;;;;;;;;;;10284781;28;20038;-84
2023/01/13 07:08:37;;;;;;;0.63;0.45;;;;;;;;;;10302692;28;20042;-82
2023/01/13 07:19:01;;;;;;;0.30;0.30;;;;;;;;;;10297531;28;20046;-83
2023/01/13 07:24:06;;;;;;;0.65;0.30;;;;;;;;;;10315898;28;20050;-84
2023/01/13 07:29:10;;;;;;;1.70;0.30;;;;;;;;;;10300686;28;20061;-82
2023/01/13 07:34:13;;;;;;;1.85;0.47;;;;;;;;;;10299851;28;20437;-82
2023/01/13 07:39:19;;;;;;;0.55;0.40;;;;;;;;;;10317673;28;20043;-84
2023/01/13 07:44:22;;;;;;;0.52;0.40;;;;;;;;;;10302751;28;20437;-83
2023/01/13 07:49:26;;;;;;;0.47;0.40;;;;;;;;;;10302210;28;20518;-82
2023/01/13 07:54:30;;;;;;;0.52;0.40;;;;;;;;;;10301773;28;20498;-84
2023/01/13 07:59:42;;;;;;;3.00;0.77;;;;;;;;;;10302239;28;20042;-84
2023/01/13 08:04:46;;;;;;;1.10;0.70;;;;;;;;;;10304129;28;20042;-83
2023/01/13 08:09:52;;;;;;;2.10;0.80;;;;;;;;;;10297176;28;20057;-83
2023/01/13 08:14:56;;;;;;;2.83;0.70;;;;;;;;;;10315161;28;20520;-83
2023/01/13 08:19:59;;;;;;;2.30;0.82;;;;;;;;;;10293434;28;20053;-83
2023/01/13 08:25:04;;;;;;;4.20;0.82;;;;;;;;;;10299475;28;20061;-83
2023/01/13 08:30:09;;;;;;;2.83;0.82;;;;;;;;;;10296176;28;20061;-82
2023/01/13 08:35:13;;;;;;;2.20;0.70;;;;;;;;;;10297191;28;20046;-84
2023/01/13 08:40:21;;;;;;;1.85;0.80;;;;;;;;;;10299594;28;20065;-84
2023/01/13 08:45:24;;;;;;;3.90;0.70;;;;;;;;;;10299706;28;20046;-83
2023/01/13 08:50:28;;;;;;;4.47;1.10;;;;;;;;;;10298084;28;20049;-83
2023/01/13 08:55:32;;;;;;;2.63;1.05;;;;;;;;;;10293644;28;20039;-83
2023/01/13 09:00:36;;;;;;;1.80;0.80;;;;;;;;;;10275225;28;20043;-82
2023/01/13 09:05:39;;;;;;;6.07;1.40;;;;;;;;;;10282084;28;20059;-81
2023/01/13 09:10:44;;;;;;;4.13;1.15;;;;;;;;;;10295138;28;20101;-84
2023/01/13 09:15:47;;;;;;;1.52;0.75;;;;;;;;;;10290200;28;20076;-81
2023/01/13 09:20:50;;;;;;;6.72;1.10;;;;;;;;;;10286042;28;20138;-81
2023/01/13 09:25:55;;;;;;;3.17;0.90;;;;;;;;;;10283474;28;20053;-83
2023/01/13 09:31:01;;;;;;;2.38;0.95;;;;;;;;;;10303813;28;20043;-82
2023/01/13 09:36:05;;;;;;;3.83;1.13;;;;;;;;;;10282559;28;20038;-83
2023/01/13 09:46:46;;;;;;;2.05;0.98;;;;;;;;;;10302760;28;20556;-83
2023/01/13 09:51:55;;;;;;;6.05;1.08;;;;;;;;;;10302994;28;20099;-83
2023/01/13 09:57:00;;;;;;;2.67;0.85;;;;;;;;;;10295955;28;20611;-83
2023/01/13 10:02:38;;;;;;;3.33;0.93;;;;;;;;;;10301917;28;20042;-83
2023/01/13 10:07:47;;;;;;;9.13;1.40;;;;;;;;;;10304808;28;20038;-83
2023/01/13 10:18:19;;;;;;;4.97;1.35;;;;;;;;;;10297975;28;20046;-82
2023/01/13 10:23:45;;;;;;;5.60;1.08;;;;;;;;;;10307590;28;20046;-83
2023/01/13 10:28:52;;;;;;;;;;;;;;;;;;10306866;28;20049;-83
2023/01/13 10:33:59;;;;;;;6.00;1.70;;;;;;;;;;10297693;28;19953;-83
2023/01/13 10:39:08;;;;;;;4.25;1.40;;;;;;;;;;10321523;28;20061;-83
2023/01/13 10:44:17;;;;;;;5.50;1.42;;;;;;;;;;10314170;28;20057;-82
2023/01/13 10:49:29;;;;;;;4.25;1.38;;;;;;;;;;10309254;28;20604;-84
2023/01/13 10:54:34;;;;;;;4.50;1.60;;;;;;;;;;10301454;28;20038;-83
2023/01/13 10:59:39;;;;;;;4.88;1.50;;;;;;;;;;10307979;28;20146;-83
2023/01/13 11:04:53;;;;;;;2.85;1.02;;;;;;;;;;10322767;28;20042;-83
2023/01/13 11:10:17;;;;;;;4.13;1.35;;;;;;;;;;10308507;28;20089;-82
2023/01/13 11:15:24;;;;;;;8.10;1.35;;;;;;;;;;10308668;28;20046;-83
2023/01/13 11:20:32;;;;;;;4.47;1.55;;;;;;;;;;10306659;28;20053;-83
2023/01/13 11:25:43;;;;;;;10.93;1.52;;;;;;;;;;10297444;28;20042;-82
2023/01/13 11:30:52;;;;;;;5.85;1.50;;;;;;;;;;10305396;28;20051;-83
2023/01/13 11:36:04;;;;;;;6.25;1.48;;;;;;;;;;10293245;28;20054;-82
2023/01/13 11:41:14;;;;;;;8.18;1.40;;;;;;;;;;10295332;28;20045;-82
2023/01/13 11:46:19;;;;;;;3.90;1.30;;;;;;;;;;10293924;28;20035;-83
2023/01/13 11:51:30;;;;;;;5.80;1.50;;;;;;;;;;10297131;28;20574;-83
2023/01/13 11:57:00;;;;;;;4.57;1.65;;;;;;;;;;10380393;22;20611;-80
2023/01/13 12:08:05;;;;;;;4.72;1.40;;;;;;;;;;10403895;28;20038;-79
2023/01/13 12:13:20;;;;;;;7.97;1.85;;;;;;;;;;10397631;28;20105;-80
2023/01/13 12:18:42;;;;;;;6.38;1.77;;;;;;;;;;10403570;28;20080;-81
2023/01/13 12:23:56;;;;;;;7.82;1.80;;;;;;;;;;10401956;28;20049;-80
2023/01/13 12:29:05;;;;;;;7.53;2.15;;;;;;;;;;10390097;28;20046;-80
2023/01/13 12:34:25;;;;;;;10.85;2.17;;;;;;;;;;10388287;28;20063;-81
2023/01/13 12:39:41;;;;;;;8.02;2.05;;;;;;;;;;10382307;28;20072;-80
2023/01/13 12:45:20;;;;;;;2.53;0.80;;;;;;;;;;10389146;28;20072;-81
2023/01/13 12:50:44;;;;;;;3.97;0.90;;;;;;;;;;10360586;28;20230;-81
2023/01/13 12:55:52;;;;;;;4.25;1.38;;;;;;;;;;10386191;28;20056;-80
2023/01/13 13:01:00;;;;;;;3.78;1.17;;;;;;;;;;10388231;28;20045;-81
2023/01/13 13:06:29;;;;;;;3.70;1.23;;;;;;;;;;10385834;28;20091;-82
2023/01/13 13:17:56;;;;;;;4.55;1.38;;;;;;;;;;10387309;28;20107;-82
2023/01/13 13:23:53;;;;;;;5.20;1.38;;;;;;;;;;10381668;28;20310;-82
2023/01/13 13:29:35;;;;;;;7.97;1.25;;;;;;;;;;10393132;28;20048;-82
2023/01/13 13:35:27;;;;;;;2.88;0.88;;;;;;;;;;10379087;28;20596;-82
2023/01/13 13:51:56;;;;;;;3.90;1.20;;;;;;;;;;10388764;28;20481;-82
2023/01/13 13:57:22;;;;;;;4.78;1.15;;;;;;;;;;10381778;28;20083;-81
2023/01/13 14:02:34;;;;;;;5.75;1.35;;;;;;;;;;10382817;28;20531;-80
2023/01/13 14:07:46;;;;;;;5.35;1.65;;;;;;;;;;10389320;28;20351;-80
2023/01/13 14:12:49;;;;;;;5.28;1.48;;;;;;;;;;10394136;28;20051;-79
2023/01/13 14:17:54;;;;;;;5.53;1.75;;;;;;;;;;10393806;28;20126;-79
2023/01/13 14:23:00;;;;;;;6.72;2.50;;;;;;;;;;10393414;28;20041;-79
2023/01/13 14:28:18;;;;;;;5.63;1.67;;;;;;;;;;10383748;28;20421;-80
2023/01/13 14:33:37;;;;;;;6.65;1.65;;;;;;;;;;10388236;28;20107;-79
2023/01/13 14:38:42;;;;;;;6.43;1.58;;;;;;;;;;10386794;28;20045;-80
2023/01/13 14:43:47;;;;;;;6.40;1.42;;;;;;;;;;10387845;28;20049;-78
2023/01/13 14:49:00;;;;;;;4.50;1.90;;;;;;;;;;10382889;28;20095;-80
2023/01/13 14:54:04;;;;;;;6.65;1.83;;;;;;;;;;10380341;28;20531;-80
2023/01/13 14:59:33;;;;;;;7.50;1.75;;;;;;;;;;10389554;28;20045;-79
2023/01/13 15:04:42;;;;;;;6.22;2.33;;;;;;;;;;10388760;28;20056;-79
2023/01/13 15:09:46;;;;;;;5.38;1.63;;;;;;;;;;10390325;28;20072;-78
2023/01/13 15:14:51;;;;;;;3.75;1.10;;;;;;;;;;10387720;28;20037;-79
2023/01/13 15:19:59;;;;;;;3.17;1.07;;;;;;;;;;10391877;28;20042;-80
2023/01/13 15:25:03;;;;;;;5.38;1.23;;;;;;;;;;10391599;28;20042;-79
2023/01/13 15:30:14;;;;;;;3.85;1.08;;;;;;;;;;10390780;28;20124;-79
2023/01/13 15:35:22;;;;;;;5.82;1.60;;;;;;;;;;10391314;28;20087;-79
2023/01/13 15:40:32;;;;;;;9.73;1.85;;;;;;;;;;10389836;28;20084;-79
2023/01/13 15:51:20;;;;;;;6.43;1.70;;;;;;;;;;10387300;28;20048;-79
2023/01/13 15:56:26;;;;;;;5.70;1.40;;;;;;;;;;10385299;28;20042;-79
2023/01/13 16:01:31;;;;;;;5.82;1.63;;;;;;;;;;10383592;28;20043;-79
2023/01/13 16:06:37;;;;;;;6.57;1.60;;;;;;;;;;10385996;28;20646;-79
2023/01/13 16:11:43;;;;;;;5.45;1.65;;;;;;;;;;10383689;28;20038;-79
2023/01/13 16:16:46;;;;;;;3.93;1.63;;;;;;;;;;10388882;28;20103;-78
2023/01/13 16:21:51;;;;;;;6.10;1.60;;;;;;;;;;10383392;28;20602;-79
2023/01/13 16:26:57;;;;;;;4.70;1.73;;;;;;;;;;10387314;28;20045;-79
2023/01/13 16:32:00;;;;;;;4.32;1.33;;;;;;;;;;10357253;28;20125;-79
2023/01/13 16:37:06;;;;;;;5.85;1.83;;;;;;;;;;10350246;28;20406;-78
2023/01/13 16:42:10;;;;;;;5.73;1.50;;;;;;;;;;10341319;28;20061;-79
2023/01/13 16:47:15;;;;;;;6.55;1.63;;;;;;;;;;10350059;28;20433;-79
2023/01/13 16:52:22;;;;;;;6.43;1.63;;;;;;;;;;10349789;28;20034;-79
2023/01/13 16:57:29;;;;;;;6.40;1.60;;;;;;;;;;10346556;28;20282;-79
2023/01/13 17:02:35;;;;;;;6.63;1.77;;;;;;;;;;10348195;28;20096;-79
2023/01/13 17:07:43;;;;;;;8.63;1.87;;;;;;;;;;10347307;28;20048;-79
2023/01/13 17:12:46;;;;;;;4.80;1.48;;;;;;;;;;10343438;28;20061;-79
2023/01/13 17:17:50;;;;;;;4.00;1.75;;;;;;;;;;10355854;28;20042;-80
2023/01/13 17:23:02;;;;;;;6.75;2.13;;;;;;;;;;10353768;28;20050;-79
2023/01/13 17:28:16;;;;;;;8.93;3.00;;;;;;;;;;10352296;28;20069;-79
2023/01/13 17:33:20;;;;;;;5.88;1.70;;;;;;;;;;10324599;28;20413;-79
2023/01/13 17:38:25;;;;;;;6.10;2.17;;;;;;;;;;10394354;28;20092;-80
2023/01/13 17:43:29;;;;;;;4.68;2.03;;;;;;;;;;10396257;28;20042;-80
2023/01/13 17:48:35;;;;;;;;;;;;;;;;;;10394511;28;20408;-80
2023/01/13 17:53:45;;;;;;;6.67;2.30;;;;;;;;;;10392419;28;20491;-80
2023/01/13 17:58:49;;;;;;;11.50;3.08;;;;;;;;;;10392405;28;20033;-81
2023/01/13 18:03:53;;;;;;;10.02;3.05;;;;;;;;;;10393380;28;20515;-80
2023/01/13 18:08:59;;;;;;;9.40;2.88;;;;;;;;;;10393445;28;20092;-80
2023/01/13 18:14:14;;;;;;;4.95;2.17;;;;;;;;;;10376212;28;20062;-81
2023/01/13 18:30:11;;;;;;;6.18;2.10;;;;;;;;;;10392731;28;20057;-81
2023/01/13 18:35:17;;;;;;;7.32;2.30;;;;;;;;;;10392852;28;20037;-80
2023/01/13 18:40:23;;;;;;;9.07;2.60;;;;;;;;;;10393023;28;20383;-81
2023/01/13 18:45:29;;;;;;;9.80;2.35;;;;;;;;;;10392079;28;20052;-79
2023/01/13 18:50:36;;;;;;;11.55;2.80;;;;;;;;;;10390541;28;20042;-80
2023/01/13 18:55:42;;;;;;;9.35;2.88;;;;;;;;;;10392238;28;20047;-79
2023/01/13 19:00:45;;;;;;;7.23;2.47;;;;;;;;;;10390859;28;20449;-79
2023/01/13 19:05:49;;;;;;;8.05;2.67;;;;;;;;;;10392209;28;20038;-79
2023/01/13 19:10:55;;;;;;;12.85;3.63;;;;;;;;;;10392360;28;20038;-79
2023/01/13 19:16:04;;;;;;;8.65;2.88;;;;;;;;;;10390062;28;20493;-79
2023/01/13 19:21:08;;;;;;;10.05;3.25;;;;;;;;;;10383961;28;20270;-79
2023/01/13 19:26:15;;;;;;;7.95;2.55;;;;;;;;;;10391433;28;20037;-79
2023/01/13 19:31:21;;;;;;;8.63;2.20;;;;;;;;;;10391367;28;20128;-79
2023/01/13 19:36:26;;;;;;;6.40;1.75;;;;;;;;;;10390985;28;20037;-79
2023/01/13 19:46:51;;;;;;;9.40;2.08;;;;;;;;;;10391638;28;20041;-79
2023/01/13 19:51:55;;;;;;;10.43;2.22;;;;;;;;;;10388151;28;20132;-79
2023/01/13 19:57:01;;;;;;;9.88;2.60;;;;;;;;;;10389582;28;20041;-79
2023/01/13 20:02:08;;;;;;;6.53;2.15;;;;;;;;;;10389051;28;20038;-79
2023/01/13 20:07:13;;;;;;;10.82;2.88;;;;;;;;;;10389781;28;20038;-79
2023/01/13 20:12:18;;;;;;;6.97;1.95;;;;;;;;;;10388219;28;20045;-78
2023/01/13 20:17:25;;;;;;;8.35;2.08;;;;;;;;;;10388489;28;20037;-79
2023/01/13 20:22:30;;;;;;;9.82;2.65;;;;;;;;;;10388317;28;20056;-79
2023/01/13 20:27:35;;;;;;;6.38;2.17;;;;;;;;;;10389639;28;20038;-79
2023/01/13 20:32:39;;;;;;;7.45;2.22;;;;;;;;;;10388598;28;20734;-79
2023/01/13 20:37:43;;;;;;;13.68;2.03;;;;;;;;;;10365719;28;20501;-79
2023/01/13 20:42:51;;;;;;;7.50;2.20;;;;;;;;;;10388524;28;20088;-79
2023/01/13 20:47:55;;;;;;;8.48;2.30;;;;;;;;;;10388625;28;20040;-79
2023/01/13 21:19:24;;;;;;;12.95;3.60;;;;;;;;;;10260679;28;20043;-85
2023/01/13 21:24:27;;;;;;;10.55;2.05;;;;;;;;;;10255465;28;20534;-86
2023/01/13 21:29:32;;;;;;;11.70;2.33;;;;;;;;;;10215762;29;20574;-88
2023/01/13 21:34:37;;;;;;;13.48;2.40;;;;;;;;;;10212643;28;20617;-83
2023/01/13 21:39:43;;;;;;;9.98;3.20;;;;;;;;;;10220971;29;20043;-84
2023/01/13 21:50:11;;;;;;;7.93;4.13;;;;;;;;;;10199385;28;19923;-84
2023/01/13 21:55:19;;;;;;;7.38;3.60;;;;;;;;;;10222656;28;20039;-84
2023/01/13 22:00:24;;;;;;;5.13;1.67;;;;;;;;;;10218321;28;20554;-84
2023/01/13 22:05:29;;;;;;;2.67;0.83;;;;;;;;;;10203268;28;20129;-84
2023/01/13 22:10:33;;;;;;;3.13;1.23;;;;;;;;;;10220349;28;20395;-83
2023/01/13 22:15:40;;;;;;;3.10;0.93;;;;;;;;;;10206720;28;20106;-84
2023/01/13 22:20:44;;;;;;;;;;;;;;;;;;10201153;28;20053;-85
2023/01/13 22:25:48;;;;;;;3.58;1.13;;;;;;;;;;10199180;28;20149;-85
2023/01/13 22:30:52;;;;;;;11.55;2.70;;;;;;;;;;10210026;28;20051;-84
2023/01/13 22:35:57;;;;;;;10.63;3.13;;;;;;;;;;10211790;28;20055;-86
2023/01/13 22:41:02;;;;;;;7.57;2.47;;;;;;;;;;10215568;28;20139;-89
2023/01/13 22:46:08;;;;;;;8.98;2.50;;;;;;;;;;10222761;28;20043;-87
2023/01/13 22:51:15;;;;;;;7.00;2.35;;;;;;;;;;10222168;28;20271;-86
2023/01/13 22:56:20;;;;;;;9.32;2.00;;;;;;;;;;10213824;29;20075;-87
2023/01/13 23:01:25;;;;;;;5.88;1.83;;;;;;;;;;10217402;29;20379;-85
2023/01/13 23:06:33;;;;;;;12.52;2.92;;;;;;;;;;10209509;29;20044;-85
2023/01/13 23:11:36;;;;;;;12.07;2.88;;;;;;;;;;10206297;29;20609;-85
2023/01/13 23:16:41;;;;;;;13.68;2.63;;;;;;;;;;10210011;28;20126;-84
2023/01/13 23:21:46;;;;;;;15.18;3.53;;;;;;;;;;10210833;29;20049;-89
2023/01/13 23:26:50;;;;;;;13.07;4.53;;;;;;;;;;10204340;29;20134;-87
2023/01/13 23:31:53;;;;;;;10.68;3.35;;;;;;;;;;10212839;29;20295;-86
2023/01/13 23:37:01;;;;;;;8.30;2.45;;;;;;;;;;10205641;29;20040;-87
2023/01/13 23:42:04;;;;;;;7.82;2.70;;;;;;;;;;10204869;29;20412;-84
2023/01/13 23:47:08;;;;;;;10.43;2.42;;;;;;;;;;10216654;28;20054;-85
2023/01/13 23:52:12;;;;;;;8.05;2.42;;;;;;;;;;10214680;29;20051;-85
2023/01/13 23:57:16;;;;;;;11.27;3.60;;;;;;;;;;10202631;29;20057;-85
